createdAt,value
2022-11-19T00:00:19.380Z,252.13
2022-11-19T00:02:50.837Z,240.90
2022-11-19T00:05:19.245Z,227.50
2022-11-19T00:07:48.748Z,244.70
2022-11-19T00:10:18.714Z,283.92
2022-11-19T00:12:56.433Z,262.40
2022-11-19T00:15:26.319Z,271.02
2022-11-19T00:17:58.359Z,238.13
2022-11-19T00:20:28.001Z,239.52
2022-11-19T00:22:58.513Z,255.77
2022-11-19T00:25:32.247Z,259.23
2022-11-19T00:28:00.954Z,277.58
2022-11-19T00:33:20.141Z,238.75
2022-11-19T00:35:49.992Z,246.07
2022-11-19T00:38:19.488Z,247.75
2022-11-19T00:40:49.006Z,235.02
2022-11-19T00:43:35.811Z,230.32
2022-11-19T00:46:04.216Z,261.13
2022-11-19T00:48:34.274Z,235.02
2022-11-19T00:51:05.386Z,257.90
2022-11-19T00:53:33.682Z,244.40
2022-11-19T00:56:02.892Z,241.65
2022-11-19T00:58:31.379Z,234.45
2022-11-19T01:01:00.968Z,228.68
2022-11-19T01:03:30.782Z,238.45
2022-11-19T01:06:01.922Z,250.57
2022-11-19T01:08:31.065Z,231.63
2022-11-19T01:11:08.125Z,244.75
2022-11-19T01:13:37.315Z,259.30
2022-11-19T01:16:11.435Z,248.43
2022-11-19T01:18:41.445Z,254.00
2022-11-19T01:21:13.395Z,258.17
2022-11-19T01:23:43.454Z,236.73
2022-11-19T01:26:14.197Z,237.55
2022-11-19T01:28:43.528Z,262.88
2022-11-19T01:31:17.278Z,271.95
2022-11-19T01:33:47.704Z,235.60
2022-11-19T01:36:22.154Z,239.23
2022-11-19T01:38:52.260Z,242.60
2022-11-19T01:41:22.133Z,239.20
2022-11-19T01:43:53.275Z,236.95
2022-11-19T01:46:25.893Z,251.95
2022-11-19T01:48:59.822Z,255.63
2022-11-19T01:51:37.798Z,266.92
2022-11-19T01:54:16.716Z,272.42
2022-11-19T01:56:47.448Z,275.52
2022-11-19T01:59:19.913Z,280.83
2022-11-19T02:01:48.580Z,264.23
2022-11-19T02:04:21.886Z,230.00
2022-11-19T02:06:53.435Z,247.05
2022-11-19T02:09:22.287Z,233.13
2022-11-19T02:12:19.735Z,241.68
2022-11-19T02:15:17.874Z,262.73
2022-11-19T02:18:15.463Z,253.70
2022-11-19T02:21:13.966Z,227.65
2022-11-19T02:24:22.255Z,242.00
2022-11-19T02:27:42.517Z,247.45
2022-11-19T02:30:17.696Z,242.50
2022-11-19T02:33:00.339Z,246.38
2022-11-19T02:35:50.421Z,227.13
2022-11-19T02:38:33.943Z,232.30
2022-11-19T02:41:30.226Z,257.48
2022-11-19T02:44:19.627Z,253.50
2022-11-19T02:46:55.591Z,223.27
2022-11-19T02:49:32.745Z,224.50
2022-11-19T02:52:02.715Z,230.50
2022-11-19T02:54:30.957Z,230.35
2022-11-19T02:57:00.493Z,239.80
2022-11-19T02:59:51.529Z,230.63
2022-11-19T03:02:43.807Z,241.35
2022-11-19T03:05:20.161Z,221.10
2022-11-19T03:07:49.016Z,233.15
2022-11-19T03:10:22.300Z,228.98
2022-11-19T03:12:56.045Z,235.48
2022-11-19T03:15:50.607Z,220.35
2022-11-19T03:18:26.347Z,232.48
2022-11-19T03:21:06.107Z,227.65
2022-11-19T03:23:41.260Z,225.60
2022-11-19T03:26:22.097Z,227.18
2022-11-19T03:28:53.954Z,233.13
2022-11-19T03:31:26.200Z,228.23
2022-11-19T03:34:00.492Z,225.38
2022-11-19T03:36:35.559Z,217.43
2022-11-19T03:39:11.547Z,231.30
2022-11-19T03:41:42.741Z,226.07
2022-11-19T03:44:19.519Z,226.35
2022-11-19T03:46:54.786Z,229.90
2022-11-19T03:49:31.660Z,222.52
2022-11-19T03:52:09.451Z,235.05
2022-11-19T03:54:38.919Z,223.48
2022-11-19T03:57:11.904Z,227.35
2022-11-19T03:59:40.266Z,209.75
2022-11-19T04:02:11.232Z,215.88
2022-11-19T04:04:42.681Z,210.85
2022-11-19T04:07:16.940Z,206.20
2022-11-19T04:09:45.664Z,211.27
2022-11-19T04:12:18.617Z,212.43
2022-11-19T04:14:48.604Z,212.40
2022-11-19T04:17:21.470Z,211.23
2022-11-19T04:19:52.324Z,212.30
2022-11-19T04:22:21.819Z,212.15
2022-11-19T04:24:50.509Z,205.35
2022-11-19T04:27:21.204Z,215.45
2022-11-19T04:29:51.014Z,216.82
2022-11-19T04:32:21.244Z,210.10
2022-11-19T04:34:52.097Z,206.77
2022-11-19T04:37:21.609Z,210.52
2022-11-19T04:39:49.938Z,206.45
2022-11-19T04:42:19.424Z,217.23
2022-11-19T04:44:48.977Z,213.27
2022-11-19T04:47:18.527Z,207.98
2022-11-19T04:49:46.811Z,213.73
2022-11-19T04:52:16.827Z,205.73
2022-11-19T04:54:45.398Z,205.82
2022-11-19T04:57:15.205Z,209.75
2022-11-19T04:59:43.768Z,214.63
2022-11-19T05:02:12.385Z,205.70
2022-11-19T05:04:42.213Z,203.52
2022-11-19T05:07:11.775Z,219.13
2022-11-19T05:09:41.407Z,216.35
2022-11-19T05:12:12.118Z,206.60
2022-11-19T05:14:40.824Z,214.82
2022-11-19T05:17:10.330Z,222.88
2022-11-19T05:19:39.790Z,216.85
2022-11-19T05:22:09.315Z,217.77
2022-11-19T05:24:37.599Z,213.07
2022-11-19T05:27:08.498Z,234.13
2022-11-19T05:29:36.749Z,258.33
2022-11-19T05:32:06.636Z,224.10
2022-11-19T05:34:36.162Z,231.55
2022-11-19T05:37:04.464Z,227.60
2022-11-19T05:39:32.744Z,218.00
2022-11-19T05:42:02.290Z,218.52
2022-11-19T05:44:33.128Z,223.00
2022-11-19T05:47:03.760Z,222.63
2022-11-19T05:49:32.050Z,221.13
2022-11-19T05:52:00.435Z,234.25
2022-11-19T05:54:29.155Z,227.48
2022-11-19T05:56:59.944Z,222.65
2022-11-19T05:59:28.840Z,214.15
2022-11-19T06:02:00.032Z,212.30
2022-11-19T06:04:28.353Z,225.90
2022-11-19T06:06:57.931Z,218.27
2022-11-19T06:09:26.244Z,219.05
2022-11-19T06:11:54.627Z,219.85
2022-11-19T06:14:28.102Z,215.10
2022-11-19T06:17:00.120Z,218.52
2022-11-19T06:19:29.619Z,219.63
2022-11-19T06:22:00.650Z,221.30
2022-11-19T06:24:29.945Z,212.73
2022-11-19T06:26:58.232Z,226.13
2022-11-19T06:29:27.929Z,218.73
2022-11-19T06:31:57.481Z,230.02
2022-11-19T06:34:27.177Z,219.68
2022-11-19T06:36:55.561Z,230.15
2022-11-19T06:39:23.914Z,222.35
2022-11-19T06:41:53.493Z,217.68
2022-11-19T06:44:21.789Z,217.38
2022-11-19T06:46:51.358Z,214.45
2022-11-19T06:49:20.500Z,215.25
2022-11-19T06:51:51.550Z,215.52
2022-11-19T06:54:19.993Z,216.05
2022-11-19T06:56:49.473Z,217.27
2022-11-19T06:59:19.328Z,213.02
2022-11-19T07:01:48.112Z,213.98
2022-11-19T07:04:17.724Z,214.88
2022-11-19T07:06:47.555Z,220.93
2022-11-19T07:09:19.230Z,210.60
2022-11-19T07:11:49.082Z,227.70
2022-11-19T07:14:18.633Z,211.00
2022-11-19T07:16:48.593Z,219.02
2022-11-19T07:19:17.587Z,215.27
2022-11-19T07:21:48.891Z,211.00
2022-11-19T07:24:19.219Z,215.60
2022-11-19T07:26:49.884Z,216.32
2022-11-19T07:29:18.890Z,214.52
2022-11-19T07:31:51.806Z,217.82
2022-11-19T07:34:22.050Z,223.60
2022-11-19T07:36:51.964Z,224.38
2022-11-19T07:39:23.377Z,209.48
2022-11-19T07:42:11.912Z,213.63
2022-11-19T07:44:42.327Z,218.63
2022-11-19T07:47:12.214Z,210.40
2022-11-19T07:49:40.838Z,221.20
2022-11-19T07:52:09.522Z,229.68
2022-11-19T07:54:40.342Z,214.57
2022-11-19T07:57:08.921Z,216.15
2022-11-19T07:59:38.493Z,212.45
2022-11-19T08:02:07.260Z,223.18
2022-11-19T08:04:36.755Z,213.07
2022-11-19T08:07:06.589Z,221.23
2022-11-19T08:09:36.569Z,213.27
2022-11-19T08:12:09.304Z,216.45
2022-11-19T08:14:37.592Z,215.48
2022-11-19T08:17:24.673Z,211.40
2022-11-19T08:19:53.289Z,231.65
2022-11-19T08:22:21.938Z,215.32
2022-11-19T08:24:51.552Z,209.45
2022-11-19T08:27:22.469Z,223.60
2022-11-19T08:29:52.285Z,219.05
2022-11-19T08:32:21.914Z,214.93
2022-11-19T08:34:51.491Z,226.77
2022-11-19T08:37:21.323Z,219.15
2022-11-19T08:39:49.943Z,212.77
2022-11-19T08:42:44.881Z,217.73
2022-11-19T08:45:19.570Z,226.30
2022-11-19T08:47:50.368Z,214.88
2022-11-19T08:50:21.194Z,209.30
2022-11-19T08:52:57.648Z,214.50
2022-11-19T08:55:29.727Z,215.68
2022-11-19T08:58:03.155Z,209.80
2022-11-19T09:00:32.826Z,213.55
2022-11-19T09:03:03.609Z,222.57
2022-11-19T09:05:33.098Z,214.02
2022-11-19T09:08:01.768Z,228.52
2022-11-19T09:10:31.482Z,223.45
2022-11-19T09:13:05.705Z,227.23
2022-11-19T09:15:34.672Z,218.40
2022-11-19T09:18:04.161Z,222.20
2022-11-19T09:20:33.668Z,223.90
2022-11-19T09:23:04.493Z,229.73
2022-11-19T09:25:33.029Z,220.60
2022-11-19T09:28:04.322Z,224.75
2022-11-19T09:30:33.816Z,217.50
2022-11-19T09:33:02.273Z,229.43
2022-11-19T09:35:31.841Z,223.82
2022-11-19T09:38:01.689Z,222.27
2022-11-19T09:40:31.607Z,228.27
2022-11-19T09:43:14.928Z,235.20
2022-11-19T09:45:58.116Z,223.77
2022-11-19T09:48:36.199Z,225.25
2022-11-19T09:51:12.381Z,234.15
2022-11-19T09:53:49.748Z,216.77
2022-11-19T09:56:28.697Z,222.30
2022-11-19T09:59:01.167Z,230.88
2022-11-19T10:01:30.349Z,225.03
2022-11-19T10:04:02.094Z,223.85
2022-11-19T10:06:45.683Z,217.10
2022-11-19T10:12:21.469Z,220.38
2022-11-19T10:15:13.726Z,216.82
2022-11-19T10:17:57.445Z,218.15
2022-11-19T10:20:55.400Z,219.88
2022-11-19T10:23:31.934Z,224.60
2022-11-19T10:26:07.759Z,228.75
2022-11-19T10:28:41.818Z,231.68
2022-11-19T10:31:21.776Z,229.45
2022-11-19T10:33:55.286Z,233.80
2022-11-19T10:36:32.274Z,239.23
2022-11-19T10:39:08.964Z,235.82
2022-11-19T10:41:45.555Z,233.95
2022-11-19T10:44:40.296Z,228.45
2022-11-19T10:47:20.397Z,228.43
2022-11-19T10:49:54.405Z,230.65
2022-11-19T10:52:32.610Z,237.55
2022-11-19T10:55:17.176Z,231.98
2022-11-19T10:57:51.011Z,229.10
2022-11-19T11:00:20.155Z,228.70
2022-11-19T11:02:59.407Z,225.38
2022-11-19T11:05:28.185Z,218.00
2022-11-19T11:08:00.211Z,217.38
2022-11-19T11:10:35.119Z,217.52
2022-11-19T11:13:41.701Z,224.32
2022-11-19T11:16:14.833Z,222.80
2022-11-19T11:18:47.119Z,218.73
2022-11-19T11:24:04.375Z,217.30
2022-11-19T11:26:35.141Z,216.20
2022-11-19T11:29:09.809Z,215.50
2022-11-19T11:31:42.546Z,217.00
2022-11-19T11:34:31.296Z,220.05
2022-11-19T11:37:03.114Z,216.95
2022-11-19T11:39:38.762Z,210.63
2022-11-19T11:42:17.598Z,214.02
2022-11-19T11:44:52.979Z,212.80
2022-11-19T11:47:24.161Z,211.45
2022-11-19T11:50:06.355Z,212.60
2022-11-19T11:52:43.908Z,213.90
2022-11-19T11:55:33.670Z,214.18
2022-11-19T11:58:06.465Z,216.82
2022-11-19T12:00:39.165Z,212.68
2022-11-19T12:03:11.957Z,216.45
2022-11-19T12:05:54.361Z,211.95
2022-11-19T12:08:45.392Z,210.57
2022-11-19T12:11:23.907Z,215.13
2022-11-19T12:14:01.018Z,215.32
2022-11-19T12:16:46.100Z,218.10
2022-11-19T12:19:42.617Z,220.63
2022-11-19T12:22:23.401Z,229.32
2022-11-19T12:25:27.032Z,226.88
2022-11-19T12:28:26.573Z,224.00
2022-11-19T12:31:13.020Z,223.05
2022-11-19T12:34:02.470Z,220.65
2022-11-19T12:36:44.372Z,221.48
2022-11-19T12:39:34.107Z,222.15
2022-11-19T12:42:33.075Z,225.57
2022-11-19T12:45:16.618Z,222.40
2022-11-19T12:48:15.422Z,222.38
2022-11-19T12:50:53.335Z,219.60
2022-11-19T12:53:46.555Z,220.98
2022-11-19T12:56:30.373Z,225.95
2022-11-19T12:59:12.239Z,225.43
2022-11-19T13:01:45.046Z,221.52
2022-11-19T13:04:20.163Z,229.80
2022-11-19T13:06:58.191Z,227.95
2022-11-19T13:09:40.137Z,232.23
2022-11-19T13:12:16.233Z,237.00
2022-11-19T13:14:54.868Z,234.13
2022-11-19T13:17:30.004Z,233.30
2022-11-19T13:20:08.567Z,232.20
2022-11-19T13:22:42.104Z,228.23
2022-11-19T13:25:21.786Z,228.90
2022-11-19T13:27:56.397Z,231.30
2022-11-19T13:30:27.362Z,235.00
2022-11-19T13:33:04.875Z,231.93
2022-11-19T13:35:44.460Z,229.18
2022-11-19T13:38:22.198Z,230.65
2022-11-19T13:40:56.999Z,246.30
2022-11-19T13:43:45.244Z,235.27
2022-11-19T13:46:24.108Z,232.50
2022-11-19T13:49:02.868Z,225.77
2022-11-19T13:51:39.056Z,226.43
2022-11-19T13:54:09.996Z,224.82
2022-11-19T13:56:43.377Z,221.95
2022-11-19T13:59:38.036Z,222.20
2022-11-19T14:02:39.945Z,225.07
2022-11-19T14:05:43.199Z,226.43
2022-11-19T14:08:33.204Z,232.13
2022-11-19T14:11:17.705Z,229.18
2022-11-19T14:14:32.744Z,223.30
2022-11-19T14:17:32.181Z,219.52
2022-11-19T14:20:20.639Z,218.75
2022-11-19T14:23:29.083Z,216.52
2022-11-19T14:26:14.921Z,222.27
2022-11-19T14:28:48.281Z,225.80
2022-11-19T14:31:19.867Z,221.45
2022-11-19T14:34:05.492Z,226.07
2022-11-19T14:36:47.397Z,230.57
2022-11-19T14:39:25.879Z,228.80
2022-11-19T14:42:16.319Z,225.25
2022-11-19T14:44:47.868Z,223.53
2022-11-19T14:47:46.095Z,223.13
2022-11-19T14:50:29.141Z,221.85
2022-11-19T14:53:02.117Z,222.82
2022-11-19T14:55:31.950Z,225.75
2022-11-19T14:58:03.361Z,226.88
2022-11-19T15:00:36.534Z,234.52
2022-11-19T15:03:14.413Z,220.43
2022-11-19T15:05:47.412Z,223.93
2022-11-19T15:08:48.169Z,209.43
2022-11-19T15:11:18.740Z,210.55
2022-11-19T15:13:49.185Z,203.80
2022-11-19T15:16:22.236Z,204.18
2022-11-19T15:19:36.440Z,207.23
2022-11-19T15:22:32.286Z,216.93
2022-11-19T15:25:31.387Z,209.77
2022-11-19T15:28:17.715Z,207.25
2022-11-19T15:31:18.247Z,205.73
2022-11-19T15:34:11.826Z,211.15
2022-11-19T15:36:44.001Z,205.57
2022-11-19T15:42:01.293Z,205.63
2022-11-19T15:47:14.785Z,205.15
2022-11-19T15:49:46.692Z,203.43
2022-11-19T15:52:22.262Z,201.07
2022-11-19T15:54:53.090Z,200.00
2022-11-19T15:57:27.401Z,199.80
2022-11-19T16:00:02.118Z,201.43
2022-11-19T16:02:40.716Z,200.50
2022-11-19T16:05:23.790Z,202.88
2022-11-19T16:07:54.275Z,199.23
2022-11-19T16:10:30.693Z,198.90
2022-11-19T16:13:20.182Z,200.75
2022-11-19T16:16:09.360Z,196.88
2022-11-19T16:18:47.220Z,195.13
2022-11-19T16:21:24.813Z,201.20
2022-11-19T16:24:09.178Z,199.07
2022-11-19T16:26:41.024Z,194.75
2022-11-19T16:29:19.465Z,187.02
2022-11-19T16:31:50.767Z,193.98
2022-11-19T16:34:25.404Z,194.90
2022-11-19T16:36:55.549Z,196.43
2022-11-19T16:39:27.374Z,194.30
2022-11-19T16:42:19.024Z,194.43
2022-11-19T16:44:50.399Z,192.70
2022-11-19T16:47:28.137Z,194.35
2022-11-19T16:50:02.018Z,195.68
2022-11-19T16:52:43.663Z,193.95
2022-11-19T16:55:51.664Z,207.27
2022-11-19T16:58:28.682Z,194.15
2022-11-19T17:00:59.702Z,194.10
2022-11-19T17:03:36.398Z,192.95
2022-11-19T17:06:07.447Z,195.63
2022-11-19T17:08:38.949Z,188.95
2022-11-19T17:11:38.401Z,186.02
2022-11-19T17:14:19.276Z,188.43
2022-11-19T17:16:50.801Z,183.85
2022-11-19T17:19:28.560Z,192.13
2022-11-19T17:22:00.759Z,195.55
2022-11-19T17:24:35.998Z,193.45
2022-11-19T17:27:05.512Z,195.93
2022-11-19T17:29:35.572Z,194.65
2022-11-19T17:32:05.981Z,205.83
2022-11-19T17:34:47.372Z,200.90
2022-11-19T17:37:16.112Z,198.95
2022-11-19T17:39:46.877Z,198.10
2022-11-19T17:42:33.820Z,194.40
2022-11-19T17:45:10.555Z,194.15
2022-11-19T17:47:40.856Z,195.27
2022-11-19T17:50:09.893Z,193.70
2022-11-19T17:52:38.553Z,194.05
2022-11-19T17:55:17.658Z,196.13
2022-11-19T17:57:45.925Z,196.43
2022-11-19T18:00:17.670Z,195.07
2022-11-19T18:02:48.666Z,196.30
2022-11-19T18:05:22.106Z,193.55
2022-11-19T18:07:51.870Z,193.50
2022-11-19T18:10:20.199Z,193.48
2022-11-19T18:12:48.818Z,194.80
2022-11-19T18:15:23.006Z,194.43
2022-11-19T18:17:52.008Z,194.02
2022-11-19T18:20:23.077Z,193.13
2022-11-19T18:22:51.744Z,187.23
2022-11-19T18:25:23.066Z,186.13
2022-11-19T18:27:51.734Z,183.68
2022-11-19T18:30:22.592Z,186.07
2022-11-19T18:35:22.409Z,194.77
2022-11-19T18:37:50.705Z,196.15
2022-11-19T18:40:19.215Z,186.52
2022-11-19T18:43:01.960Z,187.88
2022-11-19T18:45:32.895Z,186.02
2022-11-19T18:48:01.150Z,185.48
2022-11-19T18:50:31.905Z,172.80
2022-11-19T18:53:00.138Z,191.25
2022-11-19T18:55:30.876Z,179.15
2022-11-19T18:57:59.105Z,190.25
2022-11-19T19:00:28.946Z,185.77
2022-11-19T19:03:01.141Z,187.57
2022-11-19T19:05:30.672Z,184.07
2022-11-19T19:07:59.481Z,184.05
2022-11-19T19:10:30.158Z,187.40
2022-11-19T19:12:58.636Z,183.48
2022-11-19T19:15:29.823Z,188.10
2022-11-19T19:18:03.672Z,194.27
2022-11-19T19:20:37.373Z,189.32
2022-11-19T19:23:06.958Z,188.00
2022-11-19T19:25:35.570Z,187.82
2022-11-19T19:28:05.644Z,186.02
2022-11-19T19:30:35.107Z,186.75
2022-11-19T19:33:05.349Z,186.57
2022-11-19T19:35:33.606Z,178.75
2022-11-19T19:38:03.505Z,171.10
2022-11-19T19:40:34.027Z,177.85
2022-11-19T19:43:06.064Z,187.15
2022-11-19T19:45:36.676Z,184.88
2022-11-19T19:48:07.160Z,175.02
2022-11-19T19:50:35.434Z,173.23
2022-11-19T19:53:03.920Z,178.05
2022-11-19T19:55:33.477Z,173.98
2022-11-19T19:58:05.319Z,174.93
2022-11-19T20:00:34.786Z,170.35
2022-11-19T20:03:05.846Z,185.82
2022-11-19T20:05:36.599Z,246.32
2022-11-19T20:08:05.675Z,197.93
2022-11-19T20:10:36.665Z,194.52
2022-11-19T20:13:24.263Z,195.48
2022-11-19T20:15:55.696Z,193.90
2022-11-19T20:18:26.224Z,193.07
2022-11-19T20:21:02.325Z,189.32
2022-11-19T20:23:31.394Z,190.05
2022-11-19T20:26:04.656Z,189.10
2022-11-19T20:31:06.544Z,189.65
2022-11-19T20:33:36.612Z,188.15
2022-11-19T20:36:09.266Z,186.68
2022-11-19T20:38:40.940Z,187.50
2022-11-19T20:41:33.806Z,191.82
2022-11-19T20:44:18.897Z,190.18
2022-11-19T20:46:51.383Z,186.02
2022-11-19T20:49:23.844Z,175.98
2022-11-19T20:51:55.586Z,185.07
2022-11-19T20:54:26.000Z,185.52
2022-11-19T20:56:57.521Z,184.38
2022-11-19T20:59:28.183Z,184.82
2022-11-19T21:01:59.064Z,185.73
2022-11-19T21:04:31.341Z,184.05
2022-11-19T21:07:02.113Z,183.75
2022-11-19T21:09:30.765Z,184.57
2022-11-19T21:12:01.489Z,184.52
2022-11-19T21:14:29.777Z,184.60
2022-11-19T21:16:59.233Z,185.50
2022-11-19T21:19:30.090Z,184.15
2022-11-19T21:22:00.750Z,184.27
2022-11-19T21:24:29.007Z,184.60
2022-11-19T21:26:57.301Z,186.70
2022-11-19T21:29:27.099Z,191.30
2022-11-19T21:31:56.552Z,186.05
2022-11-19T21:34:24.858Z,192.30
2022-11-19T21:36:54.908Z,188.25
2022-11-19T21:39:24.985Z,174.35
2022-11-19T21:41:55.798Z,183.15
2022-11-19T21:44:25.265Z,182.43
2022-11-19T21:46:55.992Z,177.10
2022-11-19T21:49:24.628Z,174.05
2022-11-19T21:51:56.285Z,182.68
2022-11-19T21:54:25.724Z,182.88
2022-11-19T21:56:56.387Z,182.40
2022-11-19T21:59:26.533Z,183.68
2022-11-19T22:01:55.098Z,186.85
2022-11-19T22:04:23.484Z,182.57
2022-11-19T22:06:54.288Z,178.90
2022-11-19T22:09:22.977Z,183.60
2022-11-19T22:11:52.608Z,182.77
2022-11-19T22:14:20.836Z,183.80
2022-11-19T22:16:52.851Z,187.30
2022-11-19T22:19:21.523Z,188.27
2022-11-19T22:21:51.404Z,188.82
2022-11-19T22:24:22.340Z,187.85
2022-11-19T22:26:51.854Z,184.95
2022-11-19T22:29:21.886Z,183.88
2022-11-19T22:31:51.614Z,184.05
2022-11-19T22:34:20.248Z,181.05
2022-11-19T22:36:49.783Z,176.15
2022-11-19T22:39:19.708Z,183.40
2022-11-19T22:41:49.726Z,193.18
2022-11-19T22:44:17.989Z,182.50
2022-11-19T22:46:47.490Z,180.85
2022-11-19T22:49:15.722Z,173.48
2022-11-19T22:51:46.523Z,173.77
2022-11-19T22:54:16.114Z,174.50
2022-11-19T22:56:46.954Z,183.40
2022-11-19T22:59:16.636Z,185.60
2022-11-19T23:01:46.111Z,187.73
2022-11-19T23:04:16.325Z,185.55
2022-11-19T23:06:44.960Z,189.02
2022-11-19T23:09:13.194Z,195.20
2022-11-19T23:12:02.001Z,176.52
2022-11-19T23:14:31.873Z,176.38
2022-11-19T23:17:01.340Z,177.57
2022-11-19T23:19:30.814Z,172.32
2022-11-19T23:22:01.523Z,175.95
2022-11-19T23:24:29.954Z,176.10
2022-11-19T23:26:59.756Z,176.77
2022-11-19T23:29:27.993Z,174.05
2022-11-19T23:31:58.891Z,171.88
2022-11-19T23:34:27.176Z,170.45
2022-11-19T23:36:57.848Z,171.25
2022-11-19T23:39:26.097Z,172.05
2022-11-19T23:41:54.528Z,173.45
2022-11-19T23:44:24.028Z,174.50
2022-11-19T23:46:53.556Z,173.07
2022-11-19T23:49:23.549Z,172.05
2022-11-19T23:51:52.244Z,172.55
2022-11-19T23:54:20.642Z,175.60
2022-11-19T23:56:51.323Z,171.52
2022-11-19T23:59:23.096Z,174.70
